Terminal Aerodrome Forecast
Issued by NWS

Home | Current Version | Previous Version | Graphics & Text | Print | Product List | Glossary On
Versions: 1 2 3 4 5 6 7 8 9 10 11 12 13 14 15 16 17 18 19 20 21 22 23 24 25 26 27 28 29 30 31 32
660
FTUS43 KABR 052322 AAG
TAFMBG
TAF AMD
KMBG 052322Z 0523/0624 31025G38KT 1/2SM BLSN OVC015
     FM060100 31023G32KT 3SM BLSN OVC015
     FM060400 31022G32KT P6SM OVC025
     FM062100 31020G30KT P6SM BKN025=

USA.gov is the U.S. government's official web portal to all federal, state and local government web resources and services.